Time;durP1;ratioP1;P1;durP2;ratioP2;P2;SDS_P1;SDS_P2;PMS_P1;PMS_P2;Temp;Humidity;BMP_temperature;BMP_pressure;BME280_temperature;BME280_humidity;BME280_pressure;Samples;Min_cycle;Max_cycle;Signal;HPM_P1;HPM_P2
2023/08/25 00:00:55;;;;;;;;;;;27.30;99.90;;;;;;5094347;28;19924;-71
2023/08/25 00:03:21;;;;;;;;;;;27.30;99.90;;;;;;5094209;28;19953;-72
2023/08/25 00:05:50;;;;;;;;;;;27.20;99.90;;;;;;5092884;28;19912;-71
2023/08/25 00:08:16;;;;;;;;;;;27.10;99.90;;;;;;5094006;28;20244;-72
2023/08/25 00:10:42;;;;;;;;;;;27.10;99.90;;;;;;5092673;28;20309;-71
2023/08/25 00:13:17;;;;;;;;;;;27.10;99.90;;;;;;5094459;28;19914;-69
2023/08/25 00:15:44;;;;;;;;;;;27.10;99.90;;;;;;5094097;28;20302;-70
2023/08/25 00:18:10;;;;;;;;;;;27.10;99.90;;;;;;5093787;28;19930;-69
2023/08/25 00:20:36;;;;;;;;;;;27.00;99.90;;;;;;5093874;28;20271;-70
2023/08/25 00:23:02;;;;;;;;;;;26.90;99.90;;;;;;5093397;28;19908;-69
2023/08/25 00:25:28;;;;;;;;;;;26.90;99.90;;;;;;5093834;28;19915;-70
2023/08/25 00:27:54;;;;;;;;;;;26.90;99.90;;;;;;5093723;28;19908;-70
2023/08/25 00:30:20;;;;;;;;;;;27.00;99.90;;;;;;5093649;28;19981;-70
2023/08/25 00:32:46;;;;;;;;;;;27.00;99.90;;;;;;5093651;28;19912;-71
2023/08/25 00:35:14;;;;;;;;;;;27.00;99.90;;;;;;5101698;28;19920;-70
2023/08/25 00:37:39;;;;;;;;;;;26.90;99.90;;;;;;5095089;28;19926;-70
2023/08/25 00:40:06;;;;;;;;;;;27.00;99.90;;;;;;5095595;28;19915;-70
2023/08/25 00:42:31;;;;;;;;;;;26.90;99.90;;;;;;5114465;28;20216;-71
2023/08/25 00:44:57;;;;;;;;;;;27.00;99.90;;;;;;5114031;28;20014;-71
2023/08/25 00:47:24;;;;;;;;;;;27.00;99.90;;;;;;5095588;28;19915;-71
2023/08/25 00:49:50;;;;;;;;;;;27.00;99.90;;;;;;5114097;28;19914;-70
2023/08/25 00:52:18;;;;;;;;;;;26.90;99.90;;;;;;5113529;28;19908;-70
2023/08/25 00:54:44;;;;;;;;;;;26.90;99.90;;;;;;5113818;28;19914;-70
2023/08/25 00:57:10;;;;;;;;;;;27.00;99.90;;;;;;5113805;28;19912;-70
2023/08/25 00:59:36;;;;;;;;;;;27.00;99.90;;;;;;5114237;28;19964;-70
2023/08/25 01:02:03;;;;;;;;;;;27.00;99.90;;;;;;5113744;28;19912;-71
2023/08/25 01:04:31;;;;;;;;;;;27.00;99.90;;;;;;5113676;28;19915;-71
2023/08/25 01:06:57;;;;;;;;;;;26.90;99.90;;;;;;5095401;28;20279;-71
2023/08/25 01:09:24;;;;;;;;;;;26.90;99.90;;;;;;5113476;28;20376;-72
2023/08/25 01:12:08;;;;;;;;;;;27.00;99.90;;;;;;5113740;28;19946;-70
2023/08/25 01:14:49;;;;;;;;;;;27.00;99.90;;;;;;5113927;28;20003;-71
2023/08/25 01:17:22;;;;;;;;;;;27.00;99.90;;;;;;5095227;28;19907;-70
2023/08/25 01:19:58;;;;;;;;;;;26.90;99.90;;;;;;5096345;28;19923;-70
2023/08/25 01:22:42;;;;;;;;;;;26.90;99.90;;;;;;5113498;28;19912;-72
2023/08/25 01:25:26;;;;;;;;;;;26.80;99.90;;;;;;5114071;28;19908;-71
2023/08/25 01:27:54;;;;;;;;;;;26.80;99.90;;;;;;5113456;28;19933;-71
2023/08/25 01:30:22;;;;;;;;;;;26.70;99.90;;;;;;5113468;28;19914;-70
2023/08/25 01:32:48;;;;;;;;;;;26.60;99.90;;;;;;5113502;28;19946;-71
2023/08/25 01:35:15;;;;;;;;;;;26.70;99.90;;;;;;5113562;28;19963;-71
2023/08/25 01:37:56;;;;;;;;;;;26.60;99.90;;;;;;5113506;28;19915;-70
2023/08/25 01:40:24;;;;;;;;;;;26.60;99.90;;;;;;5113537;28;19916;-70
2023/08/25 01:42:51;;;;;;;;;;;26.60;99.90;;;;;;5113209;28;19908;-70
2023/08/25 01:45:17;;;;;;;;;;;26.60;99.90;;;;;;5113347;28;19912;-71
2023/08/25 01:47:45;;;;;;;;;;;26.60;99.90;;;;;;5113317;28;19912;-70
2023/08/25 01:50:11;;;;;;;;;;;26.50;99.90;;;;;;5115954;28;19908;-70
2023/08/25 01:52:37;;;;;;;;;;;26.60;99.90;;;;;;5116868;28;19918;-70
2023/08/25 01:55:03;;;;;;;;;;;26.60;99.90;;;;;;5116878;28;19908;-70
2023/08/25 01:57:28;;;;;;;;;;;26.60;99.90;;;;;;5117376;28;19958;-71
2023/08/25 01:59:54;;;;;;;;;;;26.60;99.90;;;;;;5117531;28;19935;-70
2023/08/25 02:02:20;;;;;;;;;;;26.60;99.90;;;;;;5117051;28;19908;-70
2023/08/25 02:04:46;;;;;;;;;;;26.50;99.90;;;;;;5116706;28;19908;-71
2023/08/25 02:07:12;;;;;;;;;;;26.50;99.90;;;;;;5117088;28;19912;-71
2023/08/25 02:09:38;;;;;;;;;;;26.50;99.90;;;;;;5116554;28;20006;-70
2023/08/25 02:12:04;;;;;;;;;;;26.40;99.90;;;;;;5116632;28;20003;-72
2023/08/25 02:14:30;;;;;;;;;;;26.30;99.90;;;;;;5116800;28;19930;-70
2023/08/25 02:16:56;;;;;;;;;;;26.30;99.90;;;;;;5116801;28;19908;-70
2023/08/25 02:19:22;;;;;;;;;;;26.40;99.90;;;;;;5116365;28;20420;-70
2023/08/25 02:21:48;;;;;;;;;;;26.30;99.90;;;;;;5116391;28;19919;-70
2023/08/25 02:24:14;;;;;;;;;;;26.30;99.90;;;;;;5116049;28;19908;-69
2023/08/25 02:26:40;;;;;;;;;;;26.30;99.90;;;;;;5116444;28;20379;-70
2023/08/25 02:29:06;;;;;;;;;;;26.20;99.90;;;;;;5116855;28;19908;-69
2023/08/25 02:31:31;;;;;;;;;;;26.20;99.90;;;;;;5116217;28;20386;-70
2023/08/25 02:33:57;;;;;;;;;;;26.30;99.90;;;;;;5116700;28;19911;-70
2023/08/25 02:36:23;;;;;;;;;;;26.30;99.90;;;;;;5097755;28;19993;-70
2023/08/25 02:38:49;;;;;;;;;;;26.40;99.90;;;;;;5116140;28;20347;-70
2023/08/25 02:41:15;;;;;;;;;;;26.40;99.90;;;;;;5097585;28;19915;-69
2023/08/25 02:43:40;;;;;;;;;;;26.50;99.90;;;;;;5097579;28;20363;-70
2023/08/25 02:46:06;;;;;;;;;;;26.60;99.90;;;;;;5116158;28;20036;-70
2023/08/25 02:48:32;;;;;;;;;;;26.60;99.90;;;;;;5097489;28;19929;-70
2023/08/25 02:50:58;;;;;;;;;;;26.60;99.90;;;;;;5097592;28;20426;-70
2023/08/25 02:53:24;;;;;;;;;;;26.60;99.90;;;;;;5115709;28;19908;-71
2023/08/25 02:55:50;;;;;;;;;;;26.60;99.90;;;;;;5097412;28;20417;-70
2023/08/25 02:58:15;;;;;;;;;;;26.60;99.90;;;;;;5097494;28;19950;-71
2023/08/25 03:00:41;;;;;;;;;;;26.60;99.90;;;;;;5097095;28;20270;-70
2023/08/25 03:03:07;;;;;;;;;;;26.50;99.90;;;;;;5116128;28;20390;-70
2023/08/25 03:05:33;;;;;;;;;;;26.40;99.90;;;;;;5115944;28;19908;-71
2023/08/25 03:07:59;;;;;;;;;;;26.30;99.90;;;;;;5115406;28;19961;-70
2023/08/25 03:10:25;;;;;;;;;;;26.30;99.90;;;;;;5116029;28;19909;-70
2023/08/25 03:12:51;;;;;;;;;;;26.30;99.90;;;;;;5115351;28;19915;-70
2023/08/25 03:15:17;;;;;;;;;;;26.20;99.90;;;;;;5115654;28;19911;-69
2023/08/25 03:17:43;;;;;;;;;;;26.20;99.90;;;;;;5115854;28;20236;-70
2023/08/25 03:20:09;;;;;;;;;;;26.20;99.90;;;;;;5115122;28;20287;-70
2023/08/25 03:22:35;;;;;;;;;;;26.20;99.90;;;;;;5115215;28;19908;-72
2023/08/25 03:25:01;;;;;;;;;;;26.20;99.90;;;;;;5115135;28;19907;-69
2023/08/25 03:27:28;;;;;;;;;;;26.20;99.90;;;;;;5115618;28;19992;-70
2023/08/25 03:29:54;;;;;;;;;;;26.10;99.90;;;;;;5115334;28;20375;-70
2023/08/25 03:32:20;;;;;;;;;;;26.00;99.90;;;;;;5114982;28;20320;-70
2023/08/25 03:34:46;;;;;;;;;;;26.00;99.90;;;;;;5114859;28;19947;-71
2023/08/25 03:37:11;;;;;;;;;;;26.00;99.90;;;;;;5114941;28;19908;-71
2023/08/25 03:39:37;;;;;;;;;;;26.10;99.90;;;;;;5114702;28;20257;-70
2023/08/25 03:42:03;;;;;;;;;;;26.10;99.90;;;;;;5115172;28;19908;-71
2023/08/25 03:44:29;;;;;;;;;;;26.10;99.90;;;;;;5114813;28;19907;-70
2023/08/25 03:46:55;;;;;;;;;;;26.00;99.90;;;;;;5115288;28;19908;-70
2023/08/25 03:49:20;;;;;;;;;;;26.00;99.90;;;;;;5114705;28;19912;-70
2023/08/25 03:51:46;;;;;;;;;;;26.00;99.90;;;;;;5114979;28;20388;-70
2023/08/25 03:54:12;;;;;;;;;;;26.00;99.90;;;;;;5114314;28;20359;-70
2023/08/25 03:56:38;;;;;;;;;;;26.10;99.90;;;;;;5115063;28;19919;-71
2023/08/25 03:59:04;;;;;;;;;;;26.00;99.90;;;;;;5114884;28;19908;-71
2023/08/25 04:01:30;;;;;;;;;;;25.80;99.90;;;;;;5114563;28;19924;-70
2023/08/25 04:03:55;;;;;;;;;;;25.80;99.90;;;;;;5114985;28;19953;-71
2023/08/25 04:06:21;;;;;;;;;;;25.70;99.90;;;;;;5114692;28;20324;-70
2023/08/25 04:08:47;;;;;;;;;;;25.70;99.90;;;;;;5114183;28;19916;-71
2023/08/25 04:11:13;;;;;;;;;;;25.80;99.90;;;;;;5114434;28;19908;-70
2023/08/25 04:13:39;;;;;;;;;;;25.80;99.90;;;;;;5113808;28;20412;-70
2023/08/25 04:16:04;;;;;;;;;;;25.80;99.90;;;;;;5114248;28;19907;-70
2023/08/25 04:18:30;;;;;;;;;;;25.80;99.90;;;;;;5114662;28;20256;-71
2023/08/25 04:20:56;;;;;;;;;;;25.90;99.90;;;;;;5095751;28;19920;-70
2023/08/25 04:23:25;;;;;;;;;;;25.90;99.90;;;;;;5113890;28;20255;-70
2023/08/25 04:25:51;;;;;;;;;;;25.90;99.90;;;;;;5114450;28;20053;-69
2023/08/25 04:28:17;;;;;;;;;;;26.00;99.90;;;;;;5095744;28;19961;-70
2023/08/25 04:30:43;;;;;;;;;;;26.00;99.90;;;;;;5114024;28;19915;-70
2023/08/25 04:33:09;;;;;;;;;;;26.00;99.90;;;;;;5095724;28;19908;-71
2023/08/25 04:35:36;;;;;;;;;;;26.00;99.90;;;;;;5114286;28;19991;-70
2023/08/25 04:38:02;;;;;;;;;;;26.00;99.90;;;;;;5114051;28;20386;-70
2023/08/25 04:40:28;;;;;;;;;;;26.10;99.90;;;;;;5113916;28;19919;-70
2023/08/25 04:42:54;;;;;;;;;;;26.20;99.90;;;;;;5114417;28;19939;-71
2023/08/25 04:45:21;;;;;;;;;;;26.20;99.90;;;;;;5114019;28;19954;-70
2023/08/25 04:47:46;;;;;;;;;;;26.20;99.90;;;;;;5113964;28;19907;-70
2023/08/25 04:50:13;;;;;;;;;;;26.20;99.90;;;;;;5113662;28;19981;-71
2023/08/25 04:52:39;;;;;;;;;;;26.30;99.90;;;;;;5113195;28;19998;-71
2023/08/25 04:55:05;;;;;;;;;;;26.30;99.90;;;;;;5095292;28;19959;-69
2023/08/25 04:57:31;;;;;;;;;;;26.30;99.90;;;;;;5095650;28;19908;-71
2023/08/25 04:59:57;;;;;;;;;;;26.40;99.90;;;;;;5095564;28;20045;-71
2023/08/25 05:02:23;;;;;;;;;;;26.40;99.90;;;;;;5114287;28;19908;-70
2023/08/25 05:04:50;;;;;;;;;;;26.40;99.90;;;;;;5113672;28;19915;-70
2023/08/25 05:07:16;;;;;;;;;;;26.40;99.90;;;;;;5113679;28;20074;-70
2023/08/25 05:09:42;;;;;;;;;;;26.30;99.90;;;;;;5113571;28;20010;-71
2023/08/25 05:12:08;;;;;;;;;;;26.30;99.90;;;;;;5113706;28;19974;-70
2023/08/25 05:14:34;;;;;;;;;;;26.40;99.90;;;;;;5113537;28;19943;-70
2023/08/25 05:17:00;;;;;;;;;;;26.40;99.90;;;;;;5113764;28;19946;-71
2023/08/25 05:19:26;;;;;;;;;;;26.40;99.90;;;;;;5113360;28;20356;-70
2023/08/25 05:21:51;;;;;;;;;;;26.60;99.90;;;;;;5113458;28;19945;-71
2023/08/25 05:24:18;;;;;;;;;;;26.70;99.90;;;;;;5114140;28;19912;-71
2023/08/25 05:26:47;;;;;;;;;;;27.00;99.90;;;;;;5099001;28;19908;-70
2023/08/25 05:29:14;;;;;;;;;;;27.40;99.90;;;;;;5117218;28;19939;-70
2023/08/25 05:31:40;;;;;;;;;;;27.60;99.90;;;;;;5117120;28;20010;-71
2023/08/25 05:34:09;;;;;;;;;;;27.70;99.90;;;;;;5117457;28;19915;-71
2023/08/25 05:36:35;;;;;;;;;;;27.80;99.90;;;;;;5116925;28;19920;-72
2023/08/25 05:39:01;;;;;;;;;;;28.20;99.90;;;;;;5117116;28;19990;-71
2023/08/25 05:41:27;;;;;;;;;;;28.50;99.90;;;;;;5117414;28;19916;-71
2023/08/25 05:43:53;;;;;;;;;;;29.00;99.90;;;;;;5116928;28;20069;-73
2023/08/25 05:46:19;;;;;;;;;;;29.50;99.90;;;;;;5098375;28;20394;-72
2023/08/25 05:48:44;;;;;;;;;;;29.80;99.90;;;;;;5098227;28;19915;-71
2023/08/25 05:51:10;;;;;;;;;;;30.00;99.90;;;;;;5098450;28;19998;-71
2023/08/25 05:53:36;;;;;;;;;;;30.20;99.90;;;;;;5116433;28;19990;-71
2023/08/25 05:56:02;;;;;;;;;;;30.20;99.90;;;;;;5116759;28;19908;-71
2023/08/25 05:58:28;;;;;;;;;;;29.90;99.90;;;;;;5098810;28;20019;-72
2023/08/25 06:00:56;;;;;;;;;;;30.10;99.90;;;;;;5116870;28;20010;-72
2023/08/25 06:03:22;;;;;;;;;;;30.10;99.90;;;;;;5116990;28;19908;-71
2023/08/25 06:05:51;;;;;;;;;;;30.30;99.90;;;;;;5116553;28;19911;-70
2023/08/25 06:08:17;;;;;;;;;;;31.00;99.90;;;;;;5116334;28;20359;-71
2023/08/25 06:10:43;;;;;;;;;;;31.70;99.90;;;;;;5116630;28;19914;-71
2023/08/25 06:13:09;;;;;;;;;;;32.30;99.90;;;;;;5116341;28;20015;-71
2023/08/25 06:15:35;;;;;;;;;;;33.50;99.90;;;;;;5116429;28;19908;-71
2023/08/25 06:18:02;;;;;;;;;;;33.90;99.90;;;;;;5116357;28;19939;-70
2023/08/25 06:20:29;;;;;;;;;;;34.60;99.90;;;;;;5116772;28;19919;-71
2023/08/25 06:22:54;;;;;;;;;;;35.30;99.60;;;;;;5097583;28;20415;-70
2023/08/25 06:25:21;;;;;;;;;;;35.80;98.70;;;;;;5116229;28;19965;-70
2023/08/25 06:27:47;;;;;;;;;;;36.70;98.00;;;;;;5116173;28;19907;-71
2023/08/25 06:30:13;;;;;;;;;;;36.50;97.30;;;;;;5116954;28;19998;-71
2023/08/25 06:32:39;;;;;;;;;;;37.10;96.80;;;;;;5115920;28;20427;-71
2023/08/25 06:35:05;;;;;;;;;;;37.00;95.90;;;;;;5115076;28;19955;-71
2023/08/25 06:37:31;;;;;;;;;;;37.70;95.80;;;;;;5115898;28;19907;-71
2023/08/25 06:39:57;;;;;;;;;;;37.30;95.30;;;;;;5097220;28;19915;-71
2023/08/25 06:42:23;;;;;;;;;;;38.40;94.90;;;;;;5116248;28;19947;-71
2023/08/25 06:44:52;;;;;;;;;;;38.40;94.20;;;;;;5116054;28;19995;-72
2023/08/25 06:47:17;;;;;;;;;;;38.60;93.70;;;;;;5115722;28;19908;-73
2023/08/25 06:49:43;;;;;;;;;;;39.20;93.00;;;;;;5097344;28;19960;-70
2023/08/25 06:52:09;;;;;;;;;;;38.90;92.70;;;;;;5115434;28;19912;-71
2023/08/25 06:54:35;;;;;;;;;;;39.10;92.20;;;;;;5115423;28;19908;-71
2023/08/25 06:57:01;;;;;;;;;;;39.30;92.10;;;;;;5115766;28;19915;-71
2023/08/25 06:59:26;;;;;;;;;;;40.10;91.40;;;;;;5115266;28;19907;-71
2023/08/25 07:01:52;;;;;;;;;;;40.00;90.60;;;;;;5115777;28;20420;-71
2023/08/25 07:04:19;;;;;;;;;;;39.60;90.30;;;;;;5115361;28;19912;-71
2023/08/25 07:06:45;;;;;;;;;;;38.80;90.70;;;;;;5115199;28;19934;-72
2023/08/25 07:09:13;;;;;;;;;;;38.60;90.90;;;;;;5115226;28;19915;-71
2023/08/25 07:11:39;;;;;;;;;;;38.30;91.10;;;;;;5115040;28;19919;-71
2023/08/25 07:14:04;;;;;;;;;;;37.70;91.20;;;;;;5115272;28;19912;-69
2023/08/25 07:16:30;;;;;;;;;;;37.40;91.20;;;;;;5115244;28;19942;-72
2023/08/25 07:18:56;;;;;;;;;;;37.10;91.50;;;;;;5096862;28;19966;-71
2023/08/25 07:21:23;;;;;;;;;;;37.50;91.20;;;;;;5115313;28;19959;-70
2023/08/25 07:23:51;;;;;;;;;;;38.00;90.80;;;;;;5114595;28;19912;-72
2023/08/25 07:26:16;;;;;;;;;;;38.60;90.60;;;;;;5096496;28;20312;-72
2023/08/25 07:28:42;;;;;;;;;;;39.30;90.20;;;;;;5114892;28;19908;-70
2023/08/25 07:31:12;;;;;;;;;;;39.10;89.90;;;;;;5115286;28;19912;-70
2023/08/25 07:33:38;;;;;;;;;;;38.20;89.90;;;;;;5115138;28;19919;-71
2023/08/25 07:36:04;;;;;;;;;;;38.30;90.80;;;;;;5114584;28;20299;-69
2023/08/25 07:38:29;;;;;;;;;;;38.00;91.10;;;;;;5114997;28;19908;-72
2023/08/25 07:40:55;;;;;;;;;;;37.40;91.20;;;;;;5114924;28;20260;-69
2023/08/25 07:43:21;;;;;;;;;;;37.60;91.50;;;;;;5114341;28;19908;-70
2023/08/25 07:45:49;;;;;;;;;;;37.30;92.60;;;;;;5114425;28;20735;-71
2023/08/25 07:48:16;;;;;;;;;;;37.10;93.10;;;;;;5113617;28;19922;-71
2023/08/25 07:50:43;;;;;;;;;;;36.80;93.10;;;;;;5114444;28;19911;-71
2023/08/25 07:53:09;;;;;;;;;;;36.30;94.80;;;;;;5114175;28;19912;-72
2023/08/25 07:55:39;;;;;;;;;;;35.90;95.50;;;;;;5114420;28;19907;-71
2023/08/25 07:58:09;;;;;;;;;;;35.90;96.50;;;;;;5114363;28;20190;-73
2023/08/25 08:00:37;;;;;;;;;;;36.40;96.90;;;;;;5114082;28;19916;-72
2023/08/25 08:03:04;;;;;;;;;;;36.60;96.70;;;;;;5113765;28;19912;-71
2023/08/25 08:05:30;;;;;;;;;;;36.50;97.00;;;;;;5114630;28;19907;-72
2023/08/25 08:07:56;;;;;;;;;;;36.50;97.00;;;;;;5113843;28;20350;-70
2023/08/25 08:10:22;;;;;;;;;;;36.10;97.40;;;;;;5113901;28;19955;-73
2023/08/25 08:12:48;;;;;;;;;;;36.10;97.30;;;;;;5096082;28;19969;-72
2023/08/25 08:15:14;;;;;;;;;;;35.80;97.10;;;;;;5114284;28;20029;-71
2023/08/25 08:17:40;;;;;;;;;;;35.60;97.30;;;;;;5114224;28;19908;-70
2023/08/25 08:20:09;;;;;;;;;;;35.60;97.50;;;;;;5113769;28;19935;-71
2023/08/25 08:22:35;;;;;;;;;;;35.80;97.60;;;;;;5114014;28;19912;-72
2023/08/25 08:25:01;;;;;;;;;;;36.10;97.30;;;;;;5113846;28;19908;-71
2023/08/25 08:27:27;;;;;;;;;;;35.80;97.10;;;;;;5113757;28;19907;-72
2023/08/25 08:29:52;;;;;;;;;;;35.50;97.30;;;;;;5096001;28;20358;-71
2023/08/25 08:32:19;;;;;;;;;;;35.40;98.10;;;;;;5113841;28;19912;-71
2023/08/25 08:34:44;;;;;;;;;;;35.40;98.80;;;;;;5113548;28;20307;-71
2023/08/25 08:37:11;;;;;;;;;;;35.50;99.10;;;;;;5095341;28;19912;-71
2023/08/25 08:39:39;;;;;;;;;;;36.00;99.10;;;;;;5113624;28;19911;-71
2023/08/25 08:42:07;;;;;;;;;;;35.90;99.50;;;;;;5114213;28;19908;-72
2023/08/25 08:44:37;;;;;;;;;;;35.80;99.90;;;;;;5113522;28;19908;-71
2023/08/25 08:47:03;;;;;;;;;;;35.70;99.90;;;;;;5113578;28;19916;-72
2023/08/25 08:49:30;;;;;;;;;;;35.70;99.90;;;;;;5113856;28;19912;-72
2023/08/25 08:51:58;;;;;;;;;;;35.60;99.90;;;;;;5113555;28;20276;-71
2023/08/25 08:54:27;;;;;;;;;;;35.50;99.90;;;;;;5113300;28;19915;-71
2023/08/25 08:56:53;;;;;;;;;;;35.80;99.90;;;;;;5113270;28;20006;-73
2023/08/25 08:59:19;;;;;;;;;;;35.30;99.90;;;;;;5115988;28;19971;-72
2023/08/25 09:01:45;;;;;;;;;;;35.00;99.90;;;;;;5117520;28;20025;-72
2023/08/25 09:04:11;;;;;;;;;;;35.20;99.90;;;;;;5117475;28;19911;-72
2023/08/25 09:06:37;;;;;;;;;;;35.00;99.90;;;;;;5117888;28;20363;-72
2023/08/25 09:09:05;;;;;;;;;;;35.10;99.90;;;;;;5117744;28;19908;-72
2023/08/25 09:11:32;;;;;;;;;;;35.20;99.90;;;;;;5117783;28;19914;-70
2023/08/25 09:14:03;;;;;;;;;;;35.00;99.90;;;;;;5117334;28;19911;-71
2023/08/25 09:16:35;;;;;;;;;;;35.00;99.90;;;;;;5117897;28;20359;-69
2023/08/25 09:19:04;;;;;;;;;;;35.00;99.90;;;;;;5117201;28;20011;-70
2023/08/25 09:21:31;;;;;;;;;;;34.70;99.90;;;;;;5117163;28;19922;-71
2023/08/25 09:23:58;;;;;;;;;;;34.70;99.90;;;;;;5116932;28;19908;-71
2023/08/25 09:26:24;;;;;;;;;;;34.50;99.90;;;;;;5117601;28;19908;-71
2023/08/25 09:28:52;;;;;;;;;;;34.70;99.90;;;;;;5117117;28;19908;-71
2023/08/25 09:31:21;;;;;;;;;;;34.70;99.90;;;;;;5116972;28;20002;-71
2023/08/25 09:33:49;;;;;;;;;;;34.60;99.90;;;;;;5117052;28;19907;-71
2023/08/25 09:36:15;;;;;;;;;;;34.70;99.90;;;;;;5116889;28;19919;-71
2023/08/25 09:38:45;;;;;;;;;;;34.90;99.90;;;;;;5116810;28;20360;-70
2023/08/25 09:41:11;;;;;;;;;;;34.80;99.90;;;;;;5116756;28;20011;-72
2023/08/25 09:43:40;;;;;;;;;;;34.70;99.90;;;;;;5098240;28;19908;-71
2023/08/25 09:46:08;;;;;;;;;;;34.60;99.90;;;;;;5116902;28;19918;-72
2023/08/25 09:48:34;;;;;;;;;;;34.70;99.90;;;;;;5116707;28;20018;-72
2023/08/25 09:51:00;;;;;;;;;;;35.00;99.90;;;;;;5117056;28;20407;-71
2023/08/25 09:53:31;;;;;;;;;;;35.00;99.40;;;;;;5116428;28;19968;-72
2023/08/25 09:56:02;;;;;;;;;;;35.00;99.30;;;;;;5117017;28;19908;-72
2023/08/25 09:58:28;;;;;;;;;;;35.20;98.00;;;;;;5116691;28;19908;-72
2023/08/25 10:00:55;;;;;;;;;;;35.50;98.20;;;;;;5116483;28;19962;-72
2023/08/25 10:03:21;;;;;;;;;;;35.10;99.70;;;;;;5116961;28;19912;-72
2023/08/25 10:05:47;;;;;;;;;;;34.90;99.90;;;;;;5116429;28;19965;-73
2023/08/25 10:08:14;;;;;;;;;;;34.60;99.90;;;;;;5116143;28;19911;-70
2023/08/25 10:10:42;;;;;;;;;;;34.80;99.90;;;;;;5115406;28;19907;-71
2023/08/25 10:13:11;;;;;;;;;;;35.00;98.80;;;;;;5116249;28;19911;-70
2023/08/25 10:15:37;;;;;;;;;;;34.90;99.60;;;;;;5098036;28;19915;-70
2023/08/25 10:18:06;;;;;;;;;;;34.90;99.90;;;;;;5116679;28;19908;-70
2023/08/25 10:20:34;;;;;;;;;;;34.90;99.90;;;;;;5116233;28;20014;-70
2023/08/25 10:23:00;;;;;;;;;;;35.20;99.40;;;;;;5116085;28;19915;-72
2023/08/25 10:25:27;;;;;;;;;;;35.30;99.20;;;;;;5115962;28;19960;-71
2023/08/25 10:27:54;;;;;;;;;;;35.50;98.10;;;;;;5097965;28;20306;-72
2023/08/25 10:30:20;;;;;;;;;;;35.30;98.30;;;;;;5116542;28;20388;-73
2023/08/25 10:32:50;;;;;;;;;;;35.60;99.10;;;;;;5097451;28;19908;-71
2023/08/25 10:35:16;;;;;;;;;;;35.40;99.80;;;;;;5115948;28;19923;-72
2023/08/25 10:37:42;;;;;;;;;;;35.40;99.10;;;;;;5115795;28;19908;-71
2023/08/25 10:40:11;;;;;;;;;;;35.40;99.00;;;;;;5115733;28;19915;-71
2023/08/25 10:42:37;;;;;;;;;;;35.40;98.10;;;;;;5116653;28;20006;-71
2023/08/25 10:45:04;;;;;;;;;;;35.30;97.90;;;;;;5116019;28;19995;-72
2023/08/25 10:47:30;;;;;;;;;;;35.20;98.10;;;;;;5097379;28;19908;-71
2023/08/25 10:49:59;;;;;;;;;;;35.10;98.80;;;;;;5115977;28;19908;-72
2023/08/25 10:52:24;;;;;;;;;;;35.20;98.50;;;;;;5116177;28;19907;-72
2023/08/25 10:54:52;;;;;;;;;;;35.40;98.30;;;;;;5115696;28;20377;-70
2023/08/25 10:57:18;;;;;;;;;;;35.10;98.10;;;;;;5115624;28;19907;-71
2023/08/25 10:59:47;;;;;;;;;;;35.40;97.90;;;;;;5115989;28;19915;-72
2023/08/25 11:02:32;;;;;;;;;;;35.30;97.70;;;;;;5116445;28;19911;-72
2023/08/25 11:05:18;;;;;;;;;;;35.50;97.80;;;;;;5115914;28;19915;-71
2023/08/25 11:07:44;;;;;;;;;;;35.50;97.30;;;;;;5115919;28;19950;-71
2023/08/25 11:10:13;;;;;;;;;;;35.50;97.30;;;;;;5115208;28;19915;-71
2023/08/25 11:12:40;;;;;;;;;;;35.30;96.80;;;;;;5115796;28;19912;-71
2023/08/25 11:15:09;;;;;;;;;;;35.20;97.00;;;;;;5115485;28;20340;-72
2023/08/25 11:17:35;;;;;;;;;;;35.20;96.80;;;;;;5116277;28;20011;-70
2023/08/25 11:20:16;;;;;;;;;;;35.00;97.50;;;;;;5115529;28;20015;-71
2023/08/25 11:22:55;;;;;;;;;;;35.00;97.60;;;;;;5115140;28;20360;-72
2023/08/25 11:25:21;;;;;;;;;;;35.10;98.00;;;;;;5115338;28;19927;-73
2023/08/25 11:27:50;;;;;;;;;;;35.50;97.10;;;;;;5115654;28;20268;-71
2023/08/25 11:30:16;;;;;;;;;;;35.40;96.80;;;;;;5096370;28;20260;-70
2023/08/25 11:32:50;;;;;;;;;;;35.60;95.50;;;;;;5114964;28;19915;-72
2023/08/25 11:35:17;;;;;;;;;;;35.70;95.30;;;;;;5096649;28;20375;-71
2023/08/25 11:37:44;;;;;;;;;;;35.60;96.20;;;;;;5115104;28;19908;-71
2023/08/25 11:40:13;;;;;;;;;;;35.60;96.20;;;;;;5114608;28;19912;-71
2023/08/25 11:42:42;;;;;;;;;;;35.60;96.40;;;;;;5115086;28;19916;-70
2023/08/25 11:45:09;;;;;;;;;;;35.70;96.50;;;;;;5114923;28;19937;-72
2023/08/25 11:47:35;;;;;;;;;;;35.70;95.50;;;;;;5115091;28;19927;-72
2023/08/25 11:50:04;;;;;;;;;;;35.80;94.60;;;;;;5096515;28;20011;-71
2023/08/25 11:52:30;;;;;;;;;;;35.90;94.00;;;;;;5114694;28;19908;-71
2023/08/25 11:54:56;;;;;;;;;;;36.00;93.20;;;;;;5114135;28;19908;-73
2023/08/25 11:57:31;;;;;;;;;;;36.00;94.20;;;;;;5114823;28;19908;-71
2023/08/25 11:59:57;;;;;;;;;;;35.90;94.50;;;;;;5097080;28;20264;-73
2023/08/25 12:02:23;;;;;;;;;;;36.20;94.50;;;;;;5114786;28;19907;-71
2023/08/25 12:04:54;;;;;;;;;;;35.80;94.60;;;;;;5114158;28;19911;-71
2023/08/25 12:07:26;;;;;;;;;;;35.60;94.90;;;;;;5115029;28;19916;-71
2023/08/25 12:09:54;;;;;;;;;;;35.50;94.90;;;;;;5114150;28;19916;-73
2023/08/25 12:12:30;;;;;;;;;;;35.80;94.10;;;;;;5114208;28;19996;-73
2023/08/25 12:14:56;;;;;;;;;;;36.00;93.90;;;;;;5114445;28;19908;-70
2023/08/25 12:17:28;;;;;;;;;;;35.90;93.50;;;;;;5114119;28;20340;-73
2023/08/25 12:19:54;;;;;;;;;;;35.90;93.50;;;;;;5113952;28;19953;-70
2023/08/25 12:22:20;;;;;;;;;;;36.10;93.70;;;;;;5114217;28;19965;-70
2023/08/25 12:24:46;;;;;;;;;;;36.30;93.50;;;;;;5113906;28;19907;-71
2023/08/25 12:27:13;;;;;;;;;;;36.20;92.60;;;;;;5114037;28;19914;-72
2023/08/25 12:29:39;;;;;;;;;;;36.30;92.70;;;;;;5114090;28;19980;-71
2023/08/25 12:32:07;;;;;;;;;;;36.30;92.20;;;;;;5114470;28;19912;-72
2023/08/25 12:34:33;;;;;;;;;;;36.20;93.60;;;;;;5113120;28;19912;-71
2023/08/25 12:36:59;;;;;;;;;;;36.10;94.10;;;;;;5114225;28;20011;-71
2023/08/25 12:39:31;;;;;;;;;;;36.20;93.90;;;;;;5113769;28;20002;-72
2023/08/25 12:41:57;;;;;;;;;;;36.20;94.30;;;;;;5113849;28;19939;-72
2023/08/25 12:44:23;;;;;;;;;;;36.20;94.20;;;;;;5113971;28;20348;-70
2023/08/25 12:46:49;;;;;;;;;;;35.90;95.10;;;;;;5095314;28;19914;-70
2023/08/25 12:49:14;;;;;;;;;;;35.90;95.30;;;;;;5113855;28;20002;-72
2023/08/25 12:51:41;;;;;;;;;;;35.80;95.40;;;;;;5113860;28;20360;-73
2023/08/25 12:54:13;;;;;;;;;;;36.00;95.60;;;;;;5113259;28;20293;-71
2023/08/25 12:56:39;;;;;;;;;;;35.80;95.60;;;;;;5113808;28;19912;-71
2023/08/25 12:59:05;;;;;;;;;;;36.00;96.00;;;;;;5113662;28;20022;-71
2023/08/25 13:01:35;;;;;;;;;;;35.90;95.70;;;;;;5114091;28;19974;-72
2023/08/25 13:04:01;;;;;;;;;;;36.00;95.50;;;;;;5113521;28;20019;-71
2023/08/25 13:06:27;;;;;;;;;;;35.90;95.30;;;;;;5114015;28;19954;-71
2023/08/25 13:08:53;;;;;;;;;;;36.00;95.90;;;;;;5113411;28;20205;-71
2023/08/25 13:11:20;;;;;;;;;;;35.80;96.50;;;;;;5113988;28;19955;-73
2023/08/25 13:13:46;;;;;;;;;;;35.80;96.20;;;;;;5113462;28;20364;-71
2023/08/25 13:16:12;;;;;;;;;;;35.90;95.60;;;;;;5113999;28;20006;-71
2023/08/25 13:18:37;;;;;;;;;;;36.00;95.70;;;;;;5113935;28;19979;-71
2023/08/25 13:21:03;;;;;;;;;;;35.80;95.60;;;;;;5113218;28;19916;-71
2023/08/25 13:23:30;;;;;;;;;;;35.80;94.70;;;;;;5113159;28;19912;-71
2023/08/25 13:25:55;;;;;;;;;;;35.90;95.20;;;;;;5114107;28;19915;-71
2023/08/25 13:28:21;;;;;;;;;;;35.90;95.30;;;;;;5113611;28;19908;-72
2023/08/25 13:30:49;;;;;;;;;;;35.80;95.80;;;;;;5113397;28;19987;-71
2023/08/25 13:33:15;;;;;;;;;;;36.10;96.40;;;;;;5113386;28;19937;-71
2023/08/25 13:35:41;;;;;;;;;;;35.80;96.20;;;;;;5113092;28;19920;-71
2023/08/25 13:38:07;;;;;;;;;;;35.50;96.60;;;;;;5113377;28;19908;-71
2023/08/25 13:40:32;;;;;;;;;;;35.60;97.00;;;;;;5112947;28;19918;-72
2023/08/25 13:42:58;;;;;;;;;;;35.50;98.30;;;;;;5113759;28;19915;-71
2023/08/25 13:45:24;;;;;;;;;;;35.30;98.80;;;;;;5114085;28;20359;-72
2023/08/25 13:47:50;;;;;;;;;;;35.00;99.80;;;;;;5117480;28;19990;-71
2023/08/25 13:50:16;;;;;;;;;;;35.00;99.90;;;;;;5117074;28;19912;-71
2023/08/25 13:52:41;;;;;;;;;;;35.00;99.90;;;;;;5098394;28;19972;-70
2023/08/25 13:55:07;;;;;;;;;;;35.10;99.90;;;;;;5116590;28;19930;-70
2023/08/25 13:57:35;;;;;;;;;;;35.20;99.90;;;;;;5098290;28;19953;-71
2023/08/25 14:00:05;;;;;;;;;;;35.20;99.90;;;;;;5098178;28;19919;-71
2023/08/25 14:02:31;;;;;;;;;;;34.70;99.90;;;;;;5116731;28;19907;-72
2023/08/25 14:04:57;;;;;;;;;;;34.60;99.90;;;;;;5116793;28;19994;-69
2023/08/25 14:07:23;;;;;;;;;;;34.60;99.90;;;;;;5116893;28;20360;-72
2023/08/25 14:09:49;;;;;;;;;;;34.80;99.90;;;;;;5116563;28;20006;-71
2023/08/25 14:12:15;;;;;;;;;;;34.80;99.90;;;;;;5117206;28;19915;-71
2023/08/25 14:14:40;;;;;;;;;;;35.00;99.90;;;;;;5116581;28;19908;-71